Terminal Aerodrome Forecast
Issued by NWS

Home | Current Version | Previous Version | Text Only | Print | Product List | Glossary On
Versions: 1 2 3 4 5 6 7 8 9 10 11 12 13
325
FTUS45 KTFX 281120
TAFBZN
TAF
KBZN 281120Z 2812/2912 29006KT P6SM FEW035 SCT060
      TEMPO 2812/2815 FEW035 BKN060
     FM290200 15005KT P6SM BKN060=

USA.gov is the U.S. government's official web portal to all federal, state and local government web resources and services.